Time;durP1;ratioP1;P1;durP2;ratioP2;P2;SDS_P1;SDS_P2;PMS_P1;PMS_P2;Temp;Humidity;BMP_temperature;BMP_pressure;BME280_temperature;BME280_humidity;BME280_pressure;Samples;Min_cycle;Max_cycle;Signal;HPM_P1;HPM_P2
2022/08/28 00:00:18;;;;;;;10.45;3.35;;;;;;;16.87;64.47;101832.78;5044413;28;20056;-77
2022/08/28 00:02:45;;;;;;;11.77;3.60;;;;;;;16.88;64.28;101829.13;5053324;28;20047;-77
2022/08/28 00:05:11;;;;;;;10.80;4.05;;;;;;;16.87;64.07;101828.28;5041663;28;20033;-78
2022/08/28 00:07:37;;;;;;;10.52;4.07;;;;;;;16.81;64.20;101826.94;5032262;28;20022;-77
2022/08/28 00:10:05;;;;;;;10.65;3.63;;;;;;;16.78;64.05;101832.56;5047159;28;20029;-77
2022/08/28 00:12:30;;;;;;;8.65;3.75;;;;;;;16.79;64.33;101833.44;5046421;28;20107;-77
2022/08/28 00:14:55;;;;;;;10.25;3.90;;;;;;;16.78;64.45;101837.94;5058452;28;20491;-77
2022/08/28 00:17:21;;;;;;;10.18;3.70;;;;;;;16.70;64.49;101837.75;5047595;28;20036;-77
2022/08/28 00:19:46;;;;;;;10.55;3.95;;;;;;;16.67;64.96;101832.69;5046275;28;20053;-77
2022/08/28 00:22:11;;;;;;;11.73;3.67;;;;;;;16.64;65.04;101838.31;5042252;28;20094;-77
2022/08/28 00:24:36;;;;;;;15.47;4.50;;;;;;;16.64;65.19;101836.47;5060263;28;20336;-77
2022/08/28 00:29:46;;;;;;;13.05;4.57;;;;;;;16.57;65.38;101838.00;5033176;28;20270;-77
2022/08/28 00:32:12;;;;;;;12.80;4.20;;;;;;;16.57;65.43;101837.13;5051850;28;20115;-77
2022/08/28 00:34:38;;;;;;;9.82;4.03;;;;;;;16.50;65.44;101839.47;5051588;28;20049;-77
2022/08/28 00:37:03;;;;;;;10.40;4.60;;;;;;;16.48;65.65;101837.94;5027414;28;20026;-78
2022/08/28 00:39:29;;;;;;;10.95;4.50;;;;;;;16.44;66.35;101848.06;5037686;28;20034;-77
2022/08/28 00:41:56;;;;;;;11.18;4.35;;;;;;;16.31;66.76;101840.22;5041675;28;20021;-77
2022/08/28 00:44:23;;;;;;;11.77;4.68;;;;;;;16.34;67.04;101845.31;5062399;28;20025;-77
2022/08/28 00:46:52;;;;;;;10.65;4.10;;;;;;;16.21;66.55;101837.47;5041649;28;20038;-77
2022/08/28 00:49:23;;;;;;;10.50;3.88;;;;;;;16.21;66.96;101836.63;5050442;28;20029;-77
2022/08/28 00:52:07;;;;;;;12.13;4.30;;;;;;;16.23;66.75;101846.22;5093666;22;20041;-49
2022/08/28 00:55:03;;;;;;;9.25;4.05;;;;;;;16.20;67.13;101845.63;5048542;28;20090;-50
2022/08/28 00:57:38;;;;;;;10.93;4.18;;;;;;;16.12;67.50;101842.75;5050943;28;20116;-51
2022/08/28 01:00:12;;;;;;;12.23;4.57;;;;;;;16.05;67.63;101845.09;5051391;28;20032;-52
2022/08/28 01:02:37;;;;;;;12.52;4.75;;;;;;;16.01;67.79;101849.88;5052161;28;20036;-53
2022/08/28 01:05:08;;;;;;;11.75;4.45;;;;;;;15.95;68.04;101860.25;5052333;28;20029;-50
2022/08/28 01:07:33;;;;;;;12.07;4.45;;;;;;;15.93;68.24;101855.00;5051775;28;20025;-50
2022/08/28 01:09:59;;;;;;;10.75;4.65;;;;;;;15.91;68.47;101860.50;5052417;28;20075;-53
2022/08/28 01:12:28;;;;;;;11.48;5.03;;;;;;;15.85;68.25;101861.03;5051797;28;20025;-52
2022/08/28 01:14:58;;;;;;;11.65;4.63;;;;;;;15.86;68.17;101869.91;5052227;28;20116;-52
2022/08/28 01:17:27;;;;;;;11.55;4.72;;;;;;;15.78;68.34;101861.66;5052356;28;20055;-50
2022/08/28 01:19:57;;;;;;;13.10;4.63;;;;;;;15.70;68.90;101859.56;5051840;28;20066;-53
2022/08/28 01:22:43;;;;;;;11.50;4.65;;;;;;;15.76;68.20;101863.63;5051632;28;20076;-51
2022/08/28 01:25:15;;;;;;;12.95;5.13;;;;;;;15.71;68.99;101856.75;5052038;28;20072;-49
2022/08/28 01:27:41;;;;;;;10.23;5.15;;;;;;;15.64;69.51;101862.78;5051725;28;20067;-50
2022/08/28 01:30:12;;;;;;;8.65;4.30;;;;;;;15.65;69.04;101854.59;5052093;28;20065;-52
2022/08/28 01:32:44;;;;;;;12.65;4.75;;;;;;;15.60;69.60;101861.31;5052161;28;20569;-52
2022/08/28 01:35:13;;;;;;;12.70;4.47;;;;;;;15.51;70.21;101863.75;5039784;28;20029;-48
2022/08/28 01:37:39;;;;;;;10.75;5.05;;;;;;;15.56;69.58;101865.22;5050612;28;20044;-52
2022/08/28 01:40:08;;;;;;;10.00;4.85;;;;;;;15.53;69.54;101869.81;5052258;28;20033;-49
2022/08/28 01:42:41;;;;;;;14.65;4.80;;;;;;;15.52;69.59;101872.63;5051987;28;20551;-51
2022/08/28 01:45:09;;;;;;;10.00;5.05;;;;;;;15.48;70.29;101874.72;5051695;28;20103;-51
2022/08/28 01:47:36;;;;;;;10.50;4.60;;;;;;;15.48;70.60;101879.22;5051757;28;20017;-47
2022/08/28 01:50:02;;;;;;;12.30;4.95;;;;;;;15.45;70.47;101874.94;5051920;28;20037;-51
2022/08/28 01:52:28;;;;;;;11.80;4.40;;;;;;;15.45;70.83;101879.47;5043905;28;20045;-46
2022/08/28 01:54:53;;;;;;;9.23;4.28;;;;;;;15.43;71.00;101878.75;5052016;28;20163;-48
2022/08/28 01:57:19;;;;;;;9.73;4.95;;;;;;;15.38;71.40;101876.44;5051335;28;20029;-51
2022/08/28 01:59:45;;;;;;;13.60;5.10;;;;;;;15.35;71.19;101876.66;5051804;28;20095;-49
2022/08/28 02:02:10;;;;;;;11.38;4.82;;;;;;;15.32;71.70;101876.91;5051137;28;20116;-52
2022/08/28 02:04:36;;;;;;;10.23;4.90;;;;;;;15.28;72.18;101875.47;5052078;28;20108;-48
2022/08/28 02:07:02;;;;;;;18.20;5.15;;;;;;;15.20;72.43;101876.06;5054756;28;20033;-50
2022/08/28 02:09:27;;;;;;;13.82;5.00;;;;;;;15.23;72.21;101883.88;5055426;28;20378;-49
2022/08/28 02:11:53;;;;;;;12.88;4.80;;;;;;;15.21;72.56;101876.94;5055295;28;20036;-49
2022/08/28 02:14:20;;;;;;;9.88;5.13;;;;;;;15.20;72.77;101881.44;5055025;28;20029;-49
2022/08/28 02:16:46;;;;;;;11.85;5.13;;;;;;;15.13;71.92;101880.22;5055148;28;20051;-48
2022/08/28 02:19:11;;;;;;;12.93;5.15;;;;;;;15.09;72.75;101893.00;5055124;28;20475;-50
2022/08/28 02:21:36;;;;;;;10.02;4.65;;;;;;;15.04;72.84;101886.28;5053509;28;20031;-49
2022/08/28 02:24:03;;;;;;;13.90;5.03;;;;;;;15.02;73.27;101888.25;5054745;28;20029;-49
2022/08/28 02:26:30;;;;;;;10.80;4.88;;;;;;;15.02;72.50;101893.59;5054630;28;20029;-51
2022/08/28 02:28:55;;;;;;;13.75;5.22;;;;;;;14.95;73.22;101886.06;5054907;28;20029;-51
2022/08/28 02:31:20;;;;;;;15.80;5.47;;;;;;;14.95;73.88;101887.88;5054397;28;20110;-50
2022/08/28 02:33:46;;;;;;;12.25;5.38;;;;;;;14.91;73.08;101889.94;5054894;28;20271;-49
2022/08/28 02:36:13;;;;;;;12.18;4.97;;;;;;;14.86;73.86;101886.78;5054343;28;20456;-50
2022/08/28 02:38:39;;;;;;;11.02;5.15;;;;;;;14.86;73.23;101894.81;5054909;28;20052;-53
2022/08/28 02:41:05;;;;;;;18.05;5.93;;;;;;;14.79;73.57;101899.78;5055110;28;20495;-48
2022/08/28 02:43:31;;;;;;;10.45;4.82;;;;;;;14.75;73.38;101889.44;5054255;28;20032;-50
2022/08/28 02:45:57;;;;;;;12.75;5.05;;;;;;;14.76;74.37;101894.66;5054635;28;20436;-50
2022/08/28 02:48:22;;;;;;;11.88;4.90;;;;;;;14.68;73.95;101891.72;5048876;28;20079;-49
2022/08/28 02:50:48;;;;;;;13.30;5.25;;;;;;;14.63;73.81;101887.72;5051252;28;20024;-50
2022/08/28 02:53:14;;;;;;;14.82;4.97;;;;;;;14.60;74.73;101889.66;5054325;28;20058;-49
2022/08/28 02:55:39;;;;;;;8.73;4.75;;;;;;;14.63;74.43;101888.56;5054529;28;20093;-48
2022/08/28 02:58:05;;;;;;;15.02;5.38;;;;;;;14.61;74.20;101893.19;5048160;28;20041;-48
2022/08/28 03:00:31;;;;;;;14.27;5.07;;;;;;;14.56;74.55;101895.34;5053968;28;20025;-49
2022/08/28 03:02:56;;;;;;;9.50;4.93;;;;;;;14.59;74.72;101889.78;5054390;28;20021;-49
2022/08/28 03:05:25;;;;;;;13.10;5.43;;;;;;;14.52;75.03;101885.81;5049161;28;20060;-48
2022/08/28 03:07:52;;;;;;;11.73;5.35;;;;;;;14.50;75.27;101893.13;5054160;28;20292;-48
2022/08/28 03:10:18;;;;;;;9.70;4.70;;;;;;;14.47;75.26;101891.56;5054141;28;20364;-49
2022/08/28 03:12:43;;;;;;;9.38;5.00;;;;;;;14.41;74.67;101890.19;5053917;28;20521;-47
2022/08/28 03:15:09;;;;;;;10.83;4.57;;;;;;;14.43;75.07;101890.06;5054088;28;20105;-52
2022/08/28 03:17:35;;;;;;;10.23;5.13;;;;;;;14.35;75.66;101895.97;5053041;28;20668;-47
2022/08/28 03:20:02;;;;;;;13.10;4.75;;;;;;;14.35;75.38;101901.31;5054040;28;20111;-47
2022/08/28 03:25:31;;;;;;;16.17;5.40;;;;;;;14.27;76.21;101897.53;4999934;28;20103;-47
2022/08/28 03:27:56;;;;;;;14.80;5.15;;;;;;;14.24;75.91;101899.47;5011709;28;20538;-49
2022/08/28 03:30:22;;;;;;;11.48;4.78;;;;;;;14.23;76.45;101905.78;5029566;28;20049;-47
2022/08/28 03:32:48;;;;;;;15.50;5.18;;;;;;;14.21;76.38;101907.72;5053819;28;20110;-47
2022/08/28 03:35:13;;;;;;;10.20;4.20;;;;;;;14.20;76.27;101902.50;5053332;28;20060;-47
2022/08/28 03:37:39;;;;;;;13.48;5.20;;;;;;;14.16;76.54;101903.69;5053848;28;20032;-48
2022/08/28 03:40:06;;;;;;;9.90;4.82;;;;;;;14.17;76.55;101911.59;5053700;28;20033;-49
2022/08/28 03:42:32;;;;;;;8.77;4.80;;;;;;;14.16;76.53;101911.72;5053381;28;20151;-48
2022/08/28 03:44:57;;;;;;;8.40;4.63;;;;;;;14.14;76.47;101914.50;5052908;28;20057;-48
2022/08/28 03:47:23;;;;;;;13.43;5.00;;;;;;;14.14;76.18;101918.97;5053428;28;20033;-48
2022/08/28 03:49:54;;;;;;;10.05;5.28;;;;;;;14.09;76.61;101915.78;5053596;28;20027;-49
2022/08/28 03:52:19;;;;;;;12.90;5.50;;;;;;;14.01;77.09;101909.22;5053056;28;20425;-48
2022/08/28 03:54:44;;;;;;;11.40;4.68;;;;;;;14.04;76.69;101911.66;5053001;28;20039;-48
2022/08/28 03:57:10;;;;;;;11.80;5.10;;;;;;;14.00;76.46;101912.84;5053001;28;20068;-50
2022/08/28 03:59:35;;;;;;;10.23;5.03;;;;;;;13.94;76.79;101915.09;5053360;28;20275;-49
2022/08/28 04:02:00;;;;;;;12.82;5.78;;;;;;;13.93;77.31;101916.94;5052837;28;20029;-49
2022/08/28 04:04:26;;;;;;;11.60;5.55;;;;;;;13.90;77.37;101916.31;5053195;28;20032;-48
2022/08/28 04:06:51;;;;;;;13.30;5.38;;;;;;;13.90;77.22;101919.84;5052917;28;20382;-48
2022/08/28 04:09:17;;;;;;;10.40;5.30;;;;;;;13.85;77.57;101922.84;5053212;28;20032;-49
2022/08/28 04:11:42;;;;;;;11.23;4.95;;;;;;;13.80;77.94;101921.47;5052576;28;20291;-48
2022/08/28 04:14:09;;;;;;;12.65;5.72;;;;;;;13.76;77.69;101926.19;5052999;28;20047;-48
2022/08/28 04:16:35;;;;;;;13.85;4.80;;;;;;;13.75;78.29;101921.81;5052974;28;20040;-48
2022/08/28 04:19:00;;;;;;;9.50;4.85;;;;;;;13.71;77.62;101916.81;5052482;28;20029;-48
2022/08/28 04:21:26;;;;;;;11.10;5.03;;;;;;;13.66;77.04;101923.34;5052933;28;20378;-48
2022/08/28 04:23:52;;;;;;;11.13;5.28;;;;;;;13.69;77.99;101915.09;5052428;28;20025;-49
2022/08/28 04:26:21;;;;;;;15.75;5.15;;;;;;;13.64;78.08;101916.41;5052819;28;20028;-48
2022/08/28 04:28:47;;;;;;;14.18;5.40;;;;;;;13.64;78.40;101921.75;5052433;28;20033;-52
2022/08/28 04:31:13;;;;;;;9.88;5.30;;;;;;;13.62;77.83;101929.88;5052382;28;20107;-48
2022/08/28 04:33:39;;;;;;;12.02;5.60;;;;;;;13.63;77.91;101933.38;5051374;28;20048;-49
2022/08/28 04:36:07;;;;;;;9.38;5.15;;;;;;;13.58;78.38;101936.38;5047642;28;20057;-49
2022/08/28 04:38:32;;;;;;;14.37;5.63;;;;;;;13.58;78.13;101930.19;5052660;28;20035;-52
2022/08/28 04:40:58;;;;;;;8.32;5.47;;;;;;;13.57;78.77;101931.16;5051837;28;20033;-49
2022/08/28 04:43:23;;;;;;;10.65;5.15;;;;;;;13.53;78.27;101929.69;5052275;28;20040;-49
2022/08/28 04:45:49;;;;;;;11.27;4.90;;;;;;;13.46;78.48;101932.78;5052445;28;20108;-49
2022/08/28 04:48:14;;;;;;;9.03;4.90;;;;;;;13.43;78.57;101935.66;5048231;28;20287;-49
2022/08/28 04:50:45;;;;;;;7.80;5.00;;;;;;;13.42;79.06;101941.97;5051958;28;20299;-49
2022/08/28 04:53:12;;;;;;;11.90;5.00;;;;;;;13.39;78.92;101944.00;5052460;28;20041;-50
2022/08/28 04:55:45;;;;;;;12.95;5.22;;;;;;;13.37;79.34;101940.59;5041191;28;20495;-49
2022/08/28 04:58:11;;;;;;;9.60;4.97;;;;;;;13.31;79.31;101941.84;5052759;28;20044;-50
2022/08/28 05:00:38;;;;;;;12.15;5.47;;;;;;;13.29;79.14;101938.44;5051885;28;20124;-51
2022/08/28 05:03:04;;;;;;;13.38;5.55;;;;;;;13.30;79.43;101940.97;5052542;28;20036;-48
2022/08/28 05:05:29;;;;;;;12.00;5.03;;;;;;;13.28;79.16;101950.91;5052280;28;20033;-50
2022/08/28 05:07:54;;;;;;;8.75;4.75;;;;;;;13.26;79.64;101947.50;5051448;28;20729;-50
2022/08/28 05:10:20;;;;;;;12.50;5.60;;;;;;;13.24;80.06;101953.91;5048221;28;20134;-48
2022/08/28 05:12:45;;;;;;;12.88;5.78;;;;;;;13.26;79.83;101958.19;5052487;28;20013;-50
2022/08/28 05:15:11;;;;;;;12.30;5.75;;;;;;;13.23;79.78;101968.22;5051676;28;20025;-49
2022/08/28 05:17:36;;;;;;;10.02;5.30;;;;;;;13.24;79.66;101967.22;5052464;28;20033;-52
2022/08/28 05:20:02;;;;;;;9.98;5.28;;;;;;;13.22;80.11;101966.50;5051605;28;20017;-50
2022/08/28 05:22:29;;;;;;;12.52;5.55;;;;;;;13.17;80.48;101961.47;5042067;28;20485;-52
2022/08/28 05:24:55;;;;;;;12.55;5.00;;;;;;;13.18;80.24;101973.03;5052035;28;20108;-52
2022/08/28 05:27:22;;;;;;;16.67;5.40;;;;;;;13.16;80.52;101969.63;5047188;28;20120;-53
2022/08/28 05:29:49;;;;;;;9.82;5.03;;;;;;;13.15;80.60;101974.06;5048717;28;20074;-49
2022/08/28 05:32:14;;;;;;;11.18;5.45;;;;;;;13.13;81.00;101968.84;5051848;28;20401;-49
2022/08/28 05:34:40;;;;;;;11.73;5.37;;;;;;;13.17;80.65;101980.16;5051928;28;20021;-51
2022/08/28 05:37:07;;;;;;;12.53;5.30;;;;;;;13.17;80.51;101982.81;5052176;28;20279;-51
2022/08/28 05:39:32;;;;;;;9.40;4.95;;;;;;;13.10;81.07;101974.38;5051263;28;20291;-50
2022/08/28 05:41:58;;;;;;;11.95;5.72;;;;;;;13.10;81.14;101982.38;5055424;28;20152;-49
2022/08/28 05:44:23;;;;;;;12.00;5.17;;;;;;;13.13;80.87;101971.50;5055907;28;20029;-48
2022/08/28 05:46:49;;;;;;;13.57;5.60;;;;;;;13.13;81.24;101971.50;5055819;28;20660;-50
2022/08/28 05:49:17;;;;;;;13.23;5.22;;;;;;;13.16;80.80;101973.13;5055290;28;20075;-53
2022/08/28 05:51:42;;;;;;;11.88;5.43;;;;;;;13.18;81.02;101978.34;5055858;28;20445;-51
2022/08/28 05:54:09;;;;;;;8.57;5.38;;;;;;;13.18;81.42;101987.19;5055008;28;20021;-49
2022/08/28 05:56:37;;;;;;;12.88;5.57;;;;;;;13.21;81.31;101988.81;5053863;28;20037;-47
2022/08/28 05:59:04;;;;;;;13.15;5.53;;;;;;;13.24;81.92;101988.56;5053764;28;20025;-49
2022/08/28 06:01:32;;;;;;;12.95;5.93;;;;;;;13.25;81.79;101987.63;5053326;28;20032;-47
2022/08/28 06:04:04;;;;;;;12.27;5.47;;;;;;;13.29;81.85;101986.47;5055341;28;20047;-46
2022/08/28 06:06:33;;;;;;;14.73;5.65;;;;;;;13.31;82.71;101987.22;5055166;28;20055;-46
2022/08/28 06:09:01;;;;;;;10.57;5.30;;;;;;;13.35;82.72;101994.06;5054187;28;20054;-47
2022/08/28 06:11:27;;;;;;;12.90;5.45;;;;;;;13.39;82.32;101992.91;5044634;28;20029;-51
2022/08/28 06:13:53;;;;;;;12.82;5.38;;;;;;;13.46;82.68;101996.84;5053764;28;20534;-51
2022/08/28 06:16:18;;;;;;;14.43;5.63;;;;;;;13.51;82.66;102001.84;5054418;28;20033;-52
2022/08/28 06:18:45;;;;;;;12.40;5.15;;;;;;;13.55;82.40;102003.31;5053397;28;20079;-49
2022/08/28 06:21:10;;;;;;;13.75;5.50;;;;;;;13.59;82.55;101999.50;5044314;28;20025;-50
2022/08/28 06:23:35;;;;;;;15.77;4.97;;;;;;;13.64;82.57;102002.69;5046879;28;20098;-51
2022/08/28 06:26:00;;;;;;;13.50;5.25;;;;;;;13.67;82.37;101990.91;5054009;28;20474;-51
2022/08/28 06:28:27;;;;;;;16.98;5.60;;;;;;;13.71;82.54;101997.75;5046587;28;20033;-50
2022/08/28 06:30:53;;;;;;;12.05;4.82;;;;;;;13.77;82.01;101993.78;5048373;28;20044;-47
2022/08/28 06:33:20;;;;;;;12.05;5.40;;;;;;;13.84;82.88;102000.41;5053821;28;20025;-46
2022/08/28 06:35:52;;;;;;;13.55;5.20;;;;;;;13.89;82.64;102003.59;5053647;28;20497;-48
2022/08/28 06:38:20;;;;;;;11.27;4.85;;;;;;;13.94;81.67;101997.91;5052941;28;20033;-47
2022/08/28 06:40:51;;;;;;;13.60;4.95;;;;;;;14.01;81.69;102004.53;5053840;28;20049;-47
2022/08/28 06:43:19;;;;;;;14.02;5.28;;;;;;;14.07;81.69;102014.75;5052350;28;20044;-48
2022/08/28 06:45:46;;;;;;;15.85;4.93;;;;;;;14.15;81.45;102006.19;5051553;28;20475;-47
2022/08/28 06:48:18;;;;;;;16.02;4.93;;;;;;;14.21;80.92;102016.44;5053634;28;20376;-50
2022/08/28 06:50:48;;;;;;;15.07;5.43;;;;;;;14.30;80.49;102010.41;5053364;28;20064;-47
2022/08/28 06:53:15;;;;;;;10.60;4.57;;;;;;;14.37;79.99;102011.66;5052573;28;20506;-47
2022/08/28 06:55:41;;;;;;;15.10;5.32;;;;;;;14.46;79.67;102023.50;5053375;28;20037;-48
2022/08/28 06:58:07;;;;;;;10.15;4.80;;;;;;;14.56;79.80;102013.81;5052966;28;20474;-49
2022/08/28 07:00:34;;;;;;;14.52;5.35;;;;;;;14.68;79.63;102008.53;5053147;28;20450;-47
2022/08/28 07:02:59;;;;;;;11.63;4.57;;;;;;;14.84;80.39;102018.91;5053521;28;20463;-47
2022/08/28 07:05:24;;;;;;;13.77;4.78;;;;;;;14.95;78.78;102014.47;5052220;28;20041;-49
2022/08/28 07:07:50;;;;;;;13.93;4.60;;;;;;;15.14;77.54;102015.75;5045400;28;20036;-48
2022/08/28 07:10:16;;;;;;;12.07;3.92;;;;;;;15.33;77.22;102009.78;5053212;28;20048;-50
2022/08/28 07:12:41;;;;;;;12.35;4.47;;;;;;;15.55;76.24;102008.94;5051276;28;20021;-47
2022/08/28 07:15:07;;;;;;;11.23;4.40;;;;;;;15.76;75.92;102014.47;5051831;28;20115;-47
2022/08/28 07:17:32;;;;;;;9.52;4.07;;;;;;;15.98;74.24;102015.41;5053222;28;20029;-47
2022/08/28 07:19:58;;;;;;;11.10;4.10;;;;;;;16.21;73.63;102014.38;5048523;28;20036;-48
2022/08/28 07:22:25;;;;;;;17.33;4.15;;;;;;;16.50;72.87;102018.31;5052772;28;20482;-49
2022/08/28 07:24:51;;;;;;;12.60;3.85;;;;;;;16.75;71.67;102019.78;5044887;28;20462;-51
2022/08/28 07:27:17;;;;;;;15.52;3.88;;;;;;;16.97;70.54;102013.47;5048676;28;20029;-49
2022/08/28 07:29:42;;;;;;;14.55;3.70;;;;;;;17.14;69.10;102010.22;5047447;28;20544;-47
2022/08/28 07:32:07;;;;;;;9.60;3.22;;;;;;;17.41;68.50;102024.09;5050515;28;20025;-49
2022/08/28 07:34:38;;;;;;;11.77;3.80;;;;;;;17.61;67.58;102023.19;5049871;28;20037;-48
2022/08/28 07:37:05;;;;;;;9.95;3.70;;;;;;;17.83;66.17;102026.66;5050830;28;20459;-48
2022/08/28 07:39:31;;;;;;;14.82;4.60;;;;;;;18.09;66.21;102024.38;5052030;28;20049;-50
2022/08/28 07:41:56;;;;;;;11.20;3.88;;;;;;;18.28;65.31;102028.91;5050862;28;20033;-47
2022/08/28 07:47:06;;;;;;;11.80;3.25;;;;;;;18.73;63.29;102031.06;5050425;28;20066;-48
2022/08/28 07:49:33;;;;;;;11.77;2.70;;;;;;;18.86;61.19;102034.34;5041280;28;20076;-48
2022/08/28 07:51:58;;;;;;;11.77;3.85;;;;;;;19.02;60.86;102025.69;5051221;28;20044;-48
2022/08/28 07:54:24;;;;;;;17.88;3.92;;;;;;;19.13;59.91;102023.81;5052110;28;20039;-47
2022/08/28 07:56:49;;;;;;;10.77;2.85;;;;;;;19.29;59.74;102034.00;5051259;28;20029;-47
2022/08/28 07:59:16;;;;;;;7.75;2.85;;;;;;;19.49;59.39;102030.25;5051226;28;20116;-48
2022/08/28 08:01:44;;;;;;;8.45;3.00;;;;;;;19.68;59.55;102029.31;5048224;28;20111;-51
2022/08/28 08:04:12;;;;;;;9.68;2.95;;;;;;;19.82;58.21;102038.81;5049694;28;20032;-49
2022/08/28 08:06:39;;;;;;;11.48;3.67;;;;;;;19.84;57.63;102038.66;5038904;28;20368;-49
2022/08/28 08:09:06;;;;;;;7.35;2.70;;;;;;;19.87;57.66;102043.75;5050318;28;20027;-51
2022/08/28 08:11:32;;;;;;;11.63;3.15;;;;;;;19.91;56.78;102042.44;5039536;28;20063;-49
2022/08/28 08:14:02;;;;;;;7.85;3.10;;;;;;;19.88;56.99;102040.03;5052385;28;20025;-50
2022/08/28 08:16:28;;;;;;;11.10;2.88;;;;;;;19.99;57.71;102039.84;5040246;28;20071;-50
2022/08/28 08:18:54;;;;;;;8.88;2.85;;;;;;;20.18;56.80;102038.03;5054116;28;20057;-50
2022/08/28 08:21:20;;;;;;;9.40;2.60;;;;;;;20.45;56.63;102043.41;5051854;28;20127;-51
2022/08/28 08:23:46;;;;;;;9.02;2.47;;;;;;;20.60;56.17;102032.03;5049010;28;20040;-52
2022/08/28 08:26:16;;;;;;;8.90;2.58;;;;;;;20.59;53.99;102042.00;5051355;28;20036;-49
2022/08/28 08:28:42;;;;;;;10.35;2.55;;;;;;;20.50;53.90;102051.00;5051365;28;20280;-52
2022/08/28 08:31:19;;;;;;;7.45;2.42;;;;;;;20.57;54.76;102051.25;5051299;28;20075;-52
2022/08/28 08:33:50;;;;;;;8.18;2.65;;;;;;;20.57;53.60;102052.09;5052405;28;20032;-49
2022/08/28 08:36:18;;;;;;;9.32;2.40;;;;;;;20.81;53.17;102056.06;5052476;28;20441;-50
2022/08/28 08:38:45;;;;;;;10.68;2.50;;;;;;;20.80;51.96;102055.22;5048752;28;20040;-48
2022/08/28 08:41:19;;;;;;;6.93;2.30;;;;;;;20.96;52.23;102048.25;5050128;28;20553;-49
2022/08/28 08:43:55;;;;;;;7.63;2.13;;;;;;;20.96;52.97;102041.00;5046835;28;20030;-50
2022/08/28 08:46:29;;;;;;;9.52;2.05;;;;;;;20.89;51.68;102048.88;5045546;28;20398;-49
2022/08/28 08:49:00;;;;;;;10.13;2.63;;;;;;;20.71;51.51;102050.75;5048525;28;20120;-50
2022/08/28 08:51:42;;;;;;;7.35;2.50;;;;;;;20.59;51.35;102047.41;5051760;28;20051;-48
2022/08/28 08:54:12;;;;;;;5.03;1.95;;;;;;;20.60;51.75;102046.41;5052182;28;20028;-49
2022/08/28 08:56:39;;;;;;;9.13;2.45;;;;;;;20.86;51.25;102048.34;5051268;28;20039;-49
2022/08/28 08:59:12;;;;;;;9.65;2.40;;;;;;;20.89;51.80;102040.75;5051997;28;20434;-48
2022/08/28 09:01:45;;;;;;;8.38;2.30;;;;;;;20.98;50.89;102041.66;5052001;28;20036;-48
2022/08/28 09:04:38;;;;;;;7.30;2.45;;;;;;;21.14;51.73;102042.81;5051075;28;20044;-50
2022/08/28 09:07:13;;;;;;;4.22;1.98;;;;;;;21.15;49.65;102037.25;5047667;28;20032;-48
2022/08/28 09:09:52;;;;;;;7.75;2.25;;;;;;;21.49;50.50;102038.34;5051922;28;20059;-49
2022/08/28 09:12:24;;;;;;;7.47;1.73;;;;;;;21.62;48.52;102045.00;5051277;28;20036;-50
2022/08/28 09:15:08;;;;;;;6.53;1.92;;;;;;;21.81;47.20;102048.47;5052491;28;20029;-49
2022/08/28 09:17:40;;;;;;;7.97;2.50;;;;;;;21.97;47.63;102040.41;5055595;28;20041;-50
2022/08/28 09:20:08;;;;;;;6.13;1.83;;;;;;;22.15;46.62;102043.00;5055904;28;20035;-49
2022/08/28 09:22:36;;;;;;;6.65;2.20;;;;;;;22.29;46.44;102038.84;5055962;28;20032;-49
2022/08/28 09:25:03;;;;;;;7.47;2.05;;;;;;;22.47;46.02;102037.88;5052373;28;20028;-49
2022/08/28 09:27:32;;;;;;;6.47;1.83;;;;;;;22.72;46.09;102047.69;5052762;28;20390;-50
2022/08/28 09:30:02;;;;;;;;;;;;;;;22.83;48.09;102042.97;5054602;28;20043;-47
2022/08/28 09:32:37;;;;;;;3.92;2.25;;;;;;;22.83;45.20;102037.53;5054681;28;20374;-49
2022/08/28 09:35:21;;;;;;;7.05;1.85;;;;;;;22.92;44.28;102042.78;5057240;28;20103;-49
2022/08/28 09:37:46;;;;;;;8.32;2.20;;;;;;;23.00;44.07;102031.09;5050003;28;20486;-49
2022/08/28 09:40:25;;;;;;;5.83;2.17;;;;;;;23.43;45.38;102039.88;5054685;28;20040;-49
2022/08/28 09:46:17;;;;;;;6.32;1.90;;;;;;;23.82;43.28;102032.81;5054088;28;20047;-49
2022/08/28 09:48:45;;;;;;;5.13;2.13;;;;;;;24.00;42.02;102038.81;5053638;28;20032;-49
2022/08/28 09:51:19;;;;;;;7.57;2.10;;;;;;;24.19;42.73;102032.09;5053201;28;20045;-52
2022/08/28 09:53:50;;;;;;;6.88;2.10;;;;;;;24.34;41.66;102042.19;5052714;28;20031;-48
2022/08/28 09:56:20;;;;;;;5.57;2.17;;;;;;;24.40;40.90;102030.63;5053032;28;20040;-50
2022/08/28 09:58:45;;;;;;;3.75;1.55;;;;;;;24.42;40.03;102033.16;5053249;28;20615;-49
2022/08/28 10:01:35;;;;;;;7.45;2.13;;;;;;;24.65;41.40;102031.31;5055206;28;20104;-50
2022/08/28 10:04:22;;;;;;;5.38;1.42;;;;;;;24.86;40.07;102035.22;5055126;28;20033;-50
2022/08/28 10:06:55;;;;;;;7.57;2.13;;;;;;;25.07;40.50;102042.66;5054019;28;20075;-51
2022/08/28 10:09:51;;;;;;;4.65;2.15;;;;;;;25.40;41.44;102042.38;5043037;28;20402;-52
2022/08/28 10:12:38;;;;;;;3.75;1.73;;;;;;;25.66;40.43;102040.03;5052177;28;20513;-49
2022/08/28 10:15:20;;;;;;;4.25;1.70;;;;;;;25.80;39.13;102037.47;5052679;28;20025;-51
2022/08/28 10:18:09;;;;;;;6.07;1.70;;;;;;;25.66;39.87;102045.47;5053334;28;20087;-50
2022/08/28 10:20:47;;;;;;;6.38;1.98;;;;;;;25.63;38.82;102042.25;5053697;28;20115;-51
2022/08/28 10:23:26;;;;;;;4.28;1.67;;;;;;;25.56;39.55;102027.72;5054020;28;20021;-51
2022/08/28 10:26:11;;;;;;;5.03;1.90;;;;;;;25.46;39.13;102034.31;5054153;28;20505;-52
2022/08/28 10:28:42;;;;;;;6.13;2.00;;;;;;;25.20;39.63;102037.44;5054600;28;20104;-53
2022/08/28 10:31:42;;;;;;;6.82;1.90;;;;;;;25.44;40.18;102038.22;5054573;28;20414;-52
2022/08/28 10:34:31;;;;;;;4.05;1.75;;;;;;;25.40;39.05;102035.03;5054352;28;20028;-53
2022/08/28 10:37:07;;;;;;;6.45;1.95;;;;;;;25.58;37.54;102026.50;5047131;28;20032;-51
2022/08/28 10:39:50;;;;;;;4.57;1.90;;;;;;;25.86;38.85;102031.25;5053886;28;20029;-51
2022/08/28 10:42:24;;;;;;;5.35;2.22;;;;;;;25.84;37.17;102042.31;5054456;28;20040;-52
2022/08/28 10:45:04;;;;;;;6.13;1.80;;;;;;;26.11;38.17;102033.69;5047925;28;20032;-53
2022/08/28 10:47:34;;;;;;;6.60;1.73;;;;;;;26.12;36.93;102024.47;5053590;28;20033;-53
2022/08/28 10:50:07;;;;;;;5.63;1.83;;;;;;;26.31;35.61;102025.72;5052358;28;20088;-54
2022/08/28 10:52:48;;;;;;;4.32;1.92;;;;;;;26.42;36.28;102022.50;5051914;28;20052;-52
2022/08/28 10:55:22;;;;;;;6.05;1.90;;;;;;;26.63;36.88;102028.97;5052567;28;20433;-52
2022/08/28 10:57:56;;;;;;;5.72;2.15;;;;;;;26.65;36.98;102033.22;5051473;28;20052;-53
2022/08/28 11:00:25;;;;;;;6.30;1.92;;;;;;;26.47;36.84;102032.81;5052286;28;20065;-53
2022/08/28 11:03:05;;;;;;;6.15;1.85;;;;;;;26.18;36.92;102029.13;5050830;28;20095;-53
2022/08/28 11:05:38;;;;;;;5.15;1.98;;;;;;;26.20;38.55;102037.97;5053584;28;20072;-54
2022/08/28 11:08:07;;;;;;;4.47;1.80;;;;;;;26.07;36.60;102029.66;5050655;28;20079;-52
2022/08/28 11:10:35;;;;;;;5.20;1.75;;;;;;;25.96;37.89;102042.75;5051992;28;20054;-51
2022/08/28 11:13:02;;;;;;;6.80;2.40;;;;;;;25.99;37.00;102036.88;5051320;28;20195;-53
2022/08/28 11:15:27;;;;;;;4.00;1.75;;;;;;;25.96;36.42;102037.28;5053566;28;20024;-53
2022/08/28 11:18:17;;;;;;;6.10;1.73;;;;;;;26.15;37.61;102029.53;5053635;28;20037;-53
2022/08/28 11:21:07;;;;;;;6.88;1.70;;;;;;;26.51;37.31;102028.66;5052594;28;20395;-50
2022/08/28 11:23:47;;;;;;;3.28;1.67;;;;;;;26.64;36.05;102022.50;5051839;28;20072;-50
2022/08/28 11:26:22;;;;;;;6.80;1.67;;;;;;;26.81;34.29;102023.91;5052578;28;20025;-53
2022/08/28 11:28:47;;;;;;;9.57;2.00;;;;;;;27.07;35.04;102027.91;5051806;28;20032;-53
2022/08/28 11:31:12;;;;;;;4.50;2.05;;;;;;;27.25;35.14;102032.84;5052068;28;20033;-52
2022/08/28 11:33:43;;;;;;;2.37;1.37;;;;;;;26.99;34.41;102030.78;5051441;28;20075;-52
2022/08/28 11:36:20;;;;;;;4.07;1.73;;;;;;;26.93;35.40;102025.06;5051762;28;20478;-53
2022/08/28 11:38:52;;;;;;;4.32;1.65;;;;;;;26.96;35.15;102032.00;5051168;28;20107;-49